createdAt,value
2023-05-24T00:01:42.336Z,7.30
2023-05-24T00:04:09.301Z,7.15
2023-05-24T00:06:37.319Z,6.80
2023-05-24T00:09:06.904Z,7.32
2023-05-24T00:11:36.082Z,6.68
2023-05-24T00:14:02.859Z,7.53
2023-05-24T00:16:29.697Z,7.70
2023-05-24T00:18:58.394Z,7.13
2023-05-24T00:21:25.183Z,6.70
2023-05-24T00:23:52.090Z,7.13
2023-05-24T00:26:18.947Z,7.40
2023-05-24T00:28:48.241Z,7.10
2023-05-24T00:31:15.040Z,7.10
2023-05-24T00:33:41.747Z,6.93
2023-05-24T00:36:10.652Z,6.60
2023-05-24T00:38:42.946Z,6.55
2023-05-24T00:41:11.682Z,7.38
2023-05-24T00:43:38.496Z,6.63
2023-05-24T00:46:24.728Z,6.90
2023-05-24T00:48:53.815Z,6.45
2023-05-24T00:51:20.635Z,7.07
2023-05-24T00:53:48.334Z,7.28
2023-05-24T00:56:17.709Z,6.32
2023-05-24T00:58:46.829Z,6.65
2023-05-24T01:01:15.873Z,6.57
2023-05-24T01:03:46.420Z,6.70
2023-05-24T01:06:13.514Z,6.63
2023-05-24T01:08:40.354Z,7.05
2023-05-24T01:11:35.259Z,6.45
2023-05-24T01:14:41.001Z,6.70
2023-05-24T01:17:48.848Z,7.68
2023-05-24T01:20:17.771Z,6.30
2023-05-24T01:23:06.405Z,6.47
2023-05-24T01:25:44.522Z,6.30
2023-05-24T01:28:13.800Z,6.88
2023-05-24T01:30:40.971Z,6.75
2023-05-24T01:33:07.808Z,6.80
2023-05-24T01:35:40.222Z,6.40
2023-05-24T01:38:11.180Z,6.68
2023-05-24T01:40:41.174Z,6.53
2023-05-24T01:43:24.358Z,7.03
2023-05-24T01:45:54.254Z,6.50
2023-05-24T01:48:58.655Z,6.47
2023-05-24T01:51:30.523Z,6.03
2023-05-24T01:53:57.146Z,6.13
2023-05-24T01:56:23.841Z,6.50
2023-05-24T01:58:55.897Z,6.45
2023-05-24T02:01:26.034Z,7.18
2023-05-24T02:03:52.811Z,7.03
2023-05-24T02:06:19.973Z,6.75
2023-05-24T02:08:46.742Z,7.35
2023-05-24T02:11:13.413Z,6.70
2023-05-24T02:13:42.320Z,7.13
2023-05-24T02:16:13.636Z,6.30
2023-05-24T02:18:44.966Z,6.43
2023-05-24T02:21:13.880Z,6.10
2023-05-24T02:23:40.833Z,6.03
2023-05-24T02:26:07.772Z,6.55
2023-05-24T02:28:34.511Z,6.32
2023-05-24T02:31:03.438Z,5.97
2023-05-24T02:33:32.299Z,6.03
2023-05-24T02:36:01.505Z,6.57
2023-05-24T02:38:32.880Z,6.45
2023-05-24T02:40:59.601Z,6.00
2023-05-24T02:43:26.266Z,6.13
2023-05-24T02:45:53.003Z,6.50
2023-05-24T02:48:19.748Z,7.18
2023-05-24T02:50:48.629Z,6.65
2023-05-24T02:53:17.555Z,6.55
2023-05-24T02:55:46.682Z,6.35
2023-05-24T02:58:18.149Z,6.40
2023-05-24T03:00:47.181Z,6.25
2023-05-24T03:03:13.887Z,6.47
2023-05-24T03:05:45.281Z,6.65
2023-05-24T03:08:11.991Z,6.28
2023-05-24T03:10:38.772Z,6.50
2023-05-24T03:13:07.829Z,6.50
2023-05-24T03:15:34.591Z,6.28
2023-05-24T03:18:01.347Z,6.10
2023-05-24T03:20:34.041Z,6.43
2023-05-24T03:23:03.273Z,6.65
2023-05-24T03:25:33.081Z,6.55
2023-05-24T03:27:59.935Z,5.82
2023-05-24T03:30:31.427Z,6.22
2023-05-24T03:32:58.214Z,6.78
2023-05-24T03:35:24.993Z,6.40
2023-05-24T03:37:56.846Z,5.72
2023-05-24T03:40:25.821Z,6.40
2023-05-24T03:42:52.475Z,6.15
2023-05-24T03:45:34.614Z,5.95
2023-05-24T03:48:05.061Z,5.97
2023-05-24T03:50:34.073Z,6.30
2023-05-24T03:53:03.090Z,6.65
2023-05-24T03:55:32.118Z,5.90
2023-05-24T03:58:04.167Z,6.40
2023-05-24T04:00:31.018Z,6.72
2023-05-24T04:02:57.668Z,6.45
2023-05-24T04:05:29.819Z,6.55
2023-05-24T04:07:58.779Z,5.75
2023-05-24T04:10:25.498Z,6.32
2023-05-24T04:12:57.215Z,5.93
2023-05-24T04:15:26.927Z,6.22
2023-05-24T04:17:56.197Z,5.82
2023-05-24T04:20:27.948Z,6.78
2023-05-24T04:22:56.897Z,6.15
2023-05-24T04:25:26.990Z,6.25
2023-05-24T04:27:53.716Z,6.10
2023-05-24T04:30:22.777Z,6.00
2023-05-24T04:32:52.283Z,5.80
2023-05-24T04:35:23.829Z,6.13
2023-05-24T04:37:52.637Z,6.88
2023-05-24T04:40:23.042Z,6.18
2023-05-24T04:42:50.311Z,5.97
2023-05-24T04:45:17.123Z,5.50
2023-05-24T04:47:46.632Z,6.00
2023-05-24T04:50:13.498Z,6.18
2023-05-24T04:52:42.986Z,6.10
2023-05-24T04:55:10.323Z,5.68
2023-05-24T04:57:36.969Z,5.35
2023-05-24T05:00:04.981Z,6.00
2023-05-24T05:02:32.075Z,6.03
2023-05-24T05:04:58.839Z,6.18
2023-05-24T05:07:27.747Z,5.68
2023-05-24T05:09:57.064Z,5.68
2023-05-24T05:12:23.984Z,5.93
2023-05-24T05:14:53.252Z,5.75
2023-05-24T05:17:22.094Z,6.18
2023-05-24T05:19:48.833Z,5.55
2023-05-24T05:22:18.583Z,6.03
2023-05-24T05:24:45.218Z,6.10
2023-05-24T05:27:14.181Z,6.43
2023-05-24T05:29:41.693Z,6.43
2023-05-24T05:32:08.724Z,5.68
2023-05-24T05:34:40.201Z,6.10
2023-05-24T05:37:07.405Z,6.00
2023-05-24T05:39:34.092Z,6.13
2023-05-24T05:42:03.525Z,6.00
2023-05-24T05:44:30.198Z,5.97
2023-05-24T05:46:56.954Z,6.40
2023-05-24T05:49:26.029Z,6.25
2023-05-24T05:51:55.031Z,5.72
2023-05-24T05:54:27.920Z,6.00
2023-05-24T05:56:58.214Z,6.25
2023-05-24T05:59:28.522Z,5.93
2023-05-24T06:01:55.313Z,6.10
2023-05-24T06:04:22.032Z,5.65
2023-05-24T06:06:53.533Z,5.80
2023-05-24T06:09:22.691Z,6.00
2023-05-24T06:11:52.255Z,6.28
2023-05-24T06:14:21.435Z,6.50
2023-05-24T06:16:51.279Z,6.00
2023-05-24T06:19:18.567Z,6.63
2023-05-24T06:21:48.477Z,6.22
2023-05-24T06:24:17.974Z,6.05
2023-05-24T06:26:45.624Z,6.18
2023-05-24T06:29:19.712Z,5.78
2023-05-24T06:31:47.502Z,5.90
2023-05-24T06:34:19.013Z,6.55
2023-05-24T06:36:47.912Z,7.20
2023-05-24T06:39:15.343Z,8.18
2023-05-24T06:41:43.300Z,8.32
2023-05-24T06:44:12.141Z,8.52
2023-05-24T06:46:41.563Z,7.70
2023-05-24T06:49:10.469Z,8.02
2023-05-24T06:51:39.375Z,7.63
2023-05-24T06:54:09.069Z,8.55
2023-05-24T06:56:35.757Z,7.90
2023-05-24T06:59:04.644Z,7.07
2023-05-24T07:01:33.828Z,6.97
2023-05-24T07:04:03.424Z,8.30
2023-05-24T07:06:32.389Z,8.00
2023-05-24T07:08:59.367Z,7.95
2023-05-24T07:11:28.397Z,7.47
2023-05-24T07:13:55.255Z,7.22
2023-05-24T07:16:26.669Z,7.78
2023-05-24T07:18:58.380Z,7.80
2023-05-24T07:21:27.378Z,7.55
2023-05-24T07:23:57.115Z,8.48
2023-05-24T07:26:29.699Z,8.27
2023-05-24T07:28:58.512Z,8.13
2023-05-24T07:31:29.870Z,8.10
2023-05-24T07:33:58.747Z,9.48
2023-05-24T07:36:26.174Z,8.85
2023-05-24T07:38:55.767Z,8.70
2023-05-24T07:41:23.282Z,8.38
2023-05-24T07:43:49.988Z,7.47
2023-05-24T07:46:19.298Z,8.32
2023-05-24T07:48:46.252Z,7.75
2023-05-24T07:51:15.695Z,8.27
2023-05-24T07:53:44.880Z,8.40
2023-05-24T07:56:11.632Z,8.63
2023-05-24T07:58:43.068Z,7.85
2023-05-24T08:01:13.262Z,7.65
2023-05-24T08:03:40.093Z,7.65
2023-05-24T08:06:06.874Z,8.65
2023-05-24T08:08:33.800Z,8.48
2023-05-24T08:11:00.501Z,7.88
2023-05-24T08:13:27.250Z,8.20
2023-05-24T08:15:53.983Z,7.68
2023-05-24T08:18:22.874Z,7.50
2023-05-24T08:20:49.622Z,7.45
2023-05-24T08:23:18.786Z,8.20
2023-05-24T08:25:47.732Z,7.30
2023-05-24T08:28:17.114Z,7.65
2023-05-24T08:30:43.925Z,8.15
2023-05-24T08:33:12.808Z,7.25
2023-05-24T08:35:39.624Z,7.15
2023-05-24T08:38:07.042Z,6.53
2023-05-24T08:40:36.408Z,7.25
2023-05-24T08:43:03.544Z,7.80
2023-05-24T08:45:31.329Z,7.75
2023-05-24T08:48:00.460Z,7.57
2023-05-24T08:50:29.867Z,6.70
2023-05-24T08:52:56.631Z,7.40
2023-05-24T08:55:30.000Z,7.28
2023-05-24T08:58:01.205Z,7.47
2023-05-24T09:00:28.024Z,6.53
2023-05-24T09:02:54.792Z,6.47
2023-05-24T09:05:24.483Z,7.13
2023-05-24T09:07:51.241Z,6.28
2023-05-24T09:10:23.838Z,6.25
2023-05-24T09:12:55.762Z,6.88
2023-05-24T09:15:22.593Z,6.90
2023-05-24T09:17:49.528Z,6.68
2023-05-24T09:20:16.600Z,6.70
2023-05-24T09:22:43.977Z,6.57
2023-05-24T09:25:13.051Z,6.50
2023-05-24T09:27:40.077Z,6.40
2023-05-24T09:30:11.058Z,6.35
2023-05-24T09:35:08.359Z,6.40
2023-05-24T09:37:40.428Z,4.68
2023-05-24T09:40:09.123Z,5.50
2023-05-24T09:42:36.461Z,5.35
2023-05-24T09:45:09.435Z,6.07
2023-05-24T09:47:37.222Z,5.53
2023-05-24T09:50:05.334Z,5.55
2023-05-24T09:52:33.871Z,5.47
2023-05-24T09:55:01.288Z,5.53
2023-05-24T09:57:30.369Z,5.50
2023-05-24T09:59:59.342Z,5.72
2023-05-24T10:02:26.141Z,6.25
2023-05-24T10:05:00.749Z,5.43
2023-05-24T10:07:27.748Z,5.53
2023-05-24T10:09:55.330Z,5.70
2023-05-24T10:12:25.830Z,5.28
2023-05-24T10:14:57.586Z,5.67
2023-05-24T10:17:28.158Z,5.43
2023-05-24T10:19:57.137Z,5.22
2023-05-24T10:22:26.197Z,5.32
2023-05-24T10:25:00.111Z,5.65
2023-05-24T10:27:31.711Z,5.47
2023-05-24T10:30:09.478Z,5.75
2023-05-24T10:32:40.212Z,5.18
2023-05-24T10:35:07.651Z,5.07
2023-05-24T10:37:37.264Z,5.68
2023-05-24T10:40:06.763Z,5.20
2023-05-24T10:42:35.953Z,5.45
2023-05-24T10:45:27.812Z,5.68
2023-05-24T10:47:56.756Z,5.70
2023-05-24T10:50:24.502Z,5.75
2023-05-24T10:52:51.228Z,5.80
2023-05-24T10:55:19.537Z,5.60
2023-05-24T10:57:46.292Z,5.80
2023-05-24T11:00:34.494Z,6.10
2023-05-24T11:03:09.527Z,5.80
2023-05-24T11:05:46.796Z,5.55
2023-05-24T11:08:16.067Z,5.80
2023-05-24T11:10:45.913Z,5.43
2023-05-24T11:13:12.631Z,6.40
2023-05-24T11:15:50.952Z,6.25
2023-05-24T11:18:20.395Z,6.40
2023-05-24T11:20:50.405Z,6.13
2023-05-24T11:23:17.328Z,6.57
2023-05-24T11:25:46.405Z,6.10
2023-05-24T11:28:13.310Z,7.00
2023-05-24T11:30:44.086Z,6.53
2023-05-24T11:33:14.828Z,6.72
2023-05-24T11:35:42.106Z,6.57
2023-05-24T11:38:13.529Z,6.38
2023-05-24T11:40:47.042Z,6.75
2023-05-24T11:43:16.672Z,6.30
2023-05-24T11:45:48.751Z,7.18
2023-05-24T11:48:18.916Z,6.43
2023-05-24T11:50:50.337Z,5.93
2023-05-24T11:53:21.226Z,6.50
2023-05-24T11:55:51.528Z,6.05
2023-05-24T11:58:21.429Z,6.00
2023-05-24T12:00:50.786Z,6.40
2023-05-24T12:03:20.537Z,5.63
2023-05-24T12:05:49.811Z,6.10
2023-05-24T12:08:20.462Z,5.60
2023-05-24T12:10:50.855Z,5.60
2023-05-24T12:13:23.334Z,5.67
2023-05-24T12:15:58.407Z,5.70
2023-05-24T12:18:28.385Z,5.85
2023-05-24T12:20:55.059Z,5.65
2023-05-24T12:23:24.344Z,6.03
2023-05-24T12:25:51.072Z,5.72
2023-05-24T12:28:24.815Z,5.15
2023-05-24T12:30:57.213Z,5.90
2023-05-24T12:33:24.092Z,5.70
2023-05-24T12:35:53.532Z,5.80
2023-05-24T12:38:25.491Z,5.85
2023-05-24T12:41:11.642Z,5.40
2023-05-24T12:43:40.804Z,5.97
2023-05-24T12:46:07.836Z,5.47
2023-05-24T12:48:40.299Z,5.80
2023-05-24T12:51:09.882Z,5.82
2023-05-24T12:53:39.202Z,5.80
2023-05-24T12:56:06.160Z,5.57
2023-05-24T12:58:35.043Z,5.75
2023-05-24T13:01:03.889Z,5.70
2023-05-24T13:03:30.720Z,5.32
2023-05-24T13:05:59.508Z,5.53
2023-05-24T13:08:28.724Z,5.90
2023-05-24T13:10:55.504Z,5.70
2023-05-24T13:13:24.385Z,5.32
2023-05-24T13:15:52.385Z,5.57
2023-05-24T13:18:21.479Z,5.28
2023-05-24T13:20:48.516Z,5.53
2023-05-24T13:23:15.468Z,5.53
2023-05-24T13:25:44.371Z,5.40
2023-05-24T13:28:11.520Z,5.60
2023-05-24T13:30:38.763Z,5.75
2023-05-24T13:33:05.980Z,5.47
2023-05-24T13:35:35.009Z,5.53
2023-05-24T13:38:04.167Z,5.35
2023-05-24T13:40:31.682Z,5.18
2023-05-24T13:42:58.979Z,5.95
2023-05-24T13:45:26.072Z,5.82
2023-05-24T13:47:53.958Z,5.10
2023-05-24T13:50:22.841Z,5.32
2023-05-24T13:52:49.672Z,5.20
2023-05-24T13:55:16.694Z,5.07
2023-05-24T14:00:17.680Z,5.47
2023-05-24T14:02:46.719Z,5.90
2023-05-24T14:05:25.940Z,5.32
2023-05-24T14:08:00.248Z,6.00
2023-05-24T14:10:29.463Z,5.55
2023-05-24T14:13:12.879Z,6.22
2023-05-24T14:15:46.822Z,5.90
2023-05-24T14:18:16.126Z,5.80
2023-05-24T14:20:47.550Z,6.50
2023-05-24T14:23:16.703Z,5.90
2023-05-24T14:25:46.958Z,6.15
2023-05-24T14:28:18.482Z,6.13
2023-05-24T14:30:45.257Z,5.93
2023-05-24T14:33:19.758Z,5.97
2023-05-24T14:35:46.706Z,5.93
2023-05-24T14:38:15.942Z,5.97
2023-05-24T14:40:47.584Z,6.10
2023-05-24T14:43:14.844Z,6.10
2023-05-24T14:45:43.925Z,6.07
2023-05-24T14:48:13.275Z,5.97
2023-05-24T14:50:40.429Z,6.55
2023-05-24T14:53:12.199Z,6.70
2023-05-24T14:55:57.855Z,6.18
2023-05-24T14:58:24.781Z,5.72
2023-05-24T15:00:51.613Z,6.25
2023-05-24T15:03:18.721Z,6.00
2023-05-24T15:05:45.677Z,5.75
2023-05-24T15:08:14.815Z,6.35
2023-05-24T15:10:44.468Z,6.40
2023-05-24T15:13:11.924Z,5.90
2023-05-24T15:15:42.043Z,6.82
2023-05-24T15:18:11.051Z,5.90
2023-05-24T15:20:40.465Z,6.57
2023-05-24T15:23:10.613Z,6.22
2023-05-24T15:25:39.687Z,5.43
2023-05-24T15:28:06.602Z,6.75
2023-05-24T15:30:33.346Z,7.32
2023-05-24T15:33:00.175Z,6.93
2023-05-24T15:35:27.522Z,6.82
2023-05-24T15:37:56.719Z,6.38
2023-05-24T15:40:27.084Z,6.28
2023-05-24T15:42:56.578Z,6.80
2023-05-24T15:45:23.504Z,6.53
2023-05-24T15:47:50.247Z,6.80
2023-05-24T15:50:28.560Z,6.75
2023-05-24T15:53:03.541Z,6.32
2023-05-24T15:55:30.378Z,6.30
2023-05-24T15:57:57.868Z,6.63
2023-05-24T16:00:29.956Z,6.18
2023-05-24T16:02:58.005Z,5.60
2023-05-24T16:05:26.949Z,6.10
2023-05-24T16:07:53.798Z,5.30
2023-05-24T16:10:23.668Z,6.05
2023-05-24T16:12:55.431Z,6.07
2023-05-24T16:15:22.334Z,5.82
2023-05-24T16:17:55.309Z,6.05
2023-05-24T16:20:22.282Z,5.55
2023-05-24T16:22:51.297Z,5.95
2023-05-24T16:25:17.961Z,5.55
2023-05-24T16:27:46.951Z,5.60
2023-05-24T16:30:16.292Z,4.97
2023-05-24T16:32:46.453Z,5.78
2023-05-24T16:35:13.279Z,4.47
2023-05-24T16:37:40.100Z,5.45
2023-05-24T16:40:07.681Z,5.45
2023-05-24T16:42:36.961Z,5.72
2023-05-24T16:45:04.014Z,5.47
2023-05-24T16:47:33.059Z,5.38
2023-05-24T16:49:59.933Z,5.50
2023-05-24T16:52:28.789Z,5.38
2023-05-24T16:54:57.685Z,5.82
2023-05-24T16:57:26.684Z,5.70
2023-05-24T16:59:58.188Z,5.25
2023-05-24T17:02:24.956Z,5.43
2023-05-24T17:04:53.944Z,6.72
2023-05-24T17:07:20.711Z,6.47
2023-05-24T17:09:50.214Z,6.60
2023-05-24T17:12:17.560Z,6.03
2023-05-24T17:14:44.621Z,6.50
2023-05-24T17:17:13.760Z,6.63
2023-05-24T17:19:42.705Z,7.47
2023-05-24T17:22:11.989Z,7.22
2023-05-24T17:24:40.902Z,12.93
2023-05-24T17:27:09.851Z,16.05
2023-05-24T17:29:39.185Z,32.42
2023-05-24T17:32:08.233Z,40.28
2023-05-24T17:34:34.987Z,43.53
2023-05-24T17:37:06.375Z,45.72
2023-05-24T17:39:35.849Z,42.08
2023-05-24T17:42:03.039Z,69.32
2023-05-24T17:44:29.902Z,59.85
2023-05-24T17:46:57.534Z,70.13
2023-05-24T17:49:26.664Z,64.20
2023-05-24T17:51:53.658Z,63.15
2023-05-24T17:54:22.517Z,67.90
2023-05-24T17:56:51.434Z,63.10
2023-05-24T17:59:18.348Z,65.40
2023-05-24T18:01:48.960Z,59.35
2023-05-24T18:04:18.062Z,55.75
2023-05-24T18:06:45.413Z,58.15
2023-05-24T18:09:14.252Z,49.20
2023-05-24T18:11:41.317Z,51.58
2023-05-24T18:14:08.051Z,45.30
2023-05-24T18:16:39.528Z,46.22
2023-05-24T18:19:09.023Z,43.15
2023-05-24T18:21:37.921Z,38.42
2023-05-24T18:24:07.297Z,36.35
2023-05-24T18:26:36.181Z,37.28
2023-05-24T18:29:05.088Z,31.98
2023-05-24T18:31:31.839Z,30.00
2023-05-24T18:34:01.898Z,33.08
2023-05-24T18:36:29.533Z,27.30
2023-05-24T18:38:56.561Z,28.73
2023-05-24T18:41:23.310Z,28.63
2023-05-24T18:43:50.053Z,29.02
2023-05-24T18:46:21.594Z,28.17
2023-05-24T18:48:48.376Z,22.42
2023-05-24T18:51:17.757Z,23.30
2023-05-24T18:53:48.900Z,20.65
2023-05-24T18:58:49.661Z,16.92
2023-05-24T19:01:19.134Z,15.38
2023-05-24T19:03:48.216Z,14.48
2023-05-24T19:06:18.700Z,14.60
2023-05-24T19:08:45.506Z,14.00
2023-05-24T19:11:12.334Z,13.40
2023-05-24T19:13:41.915Z,13.25
2023-05-24T19:16:17.432Z,12.10
2023-05-24T19:18:47.289Z,11.60
2023-05-24T19:21:17.057Z,10.43
2023-05-24T19:23:48.480Z,11.60
2023-05-24T19:26:20.533Z,11.90
2023-05-24T19:28:51.935Z,12.30
2023-05-24T19:31:23.398Z,11.25
2023-05-24T19:36:25.983Z,10.07
2023-05-24T19:38:54.848Z,9.93
2023-05-24T19:41:24.118Z,9.80
2023-05-24T19:43:54.955Z,9.07
2023-05-24T19:46:23.218Z,9.57
2023-05-24T19:48:54.641Z,9.35
2023-05-24T19:51:21.450Z,9.18
2023-05-24T19:53:48.086Z,12.25
2023-05-24T19:56:14.793Z,9.35
2023-05-24T19:58:41.501Z,8.13
2023-05-24T20:01:10.563Z,8.05
2023-05-24T20:03:39.980Z,8.10
2023-05-24T20:06:06.973Z,7.65
2023-05-24T20:08:35.867Z,7.60
2023-05-24T20:11:03.405Z,6.63
2023-05-24T20:13:32.700Z,7.07
2023-05-24T20:16:01.787Z,6.80
2023-05-24T20:18:30.718Z,6.70
2023-05-24T20:20:57.636Z,6.75
2023-05-24T20:23:27.570Z,7.07
2023-05-24T20:25:55.736Z,7.45
2023-05-24T20:28:30.902Z,7.03
2023-05-24T20:30:58.689Z,7.30
2023-05-24T20:33:27.709Z,7.35
2023-05-24T20:35:56.799Z,7.60
2023-05-24T20:38:25.635Z,7.28
2023-05-24T20:40:54.537Z,7.15
2023-05-24T20:43:21.509Z,7.60
2023-05-24T20:45:50.442Z,7.50
2023-05-24T20:48:17.629Z,7.15
2023-05-24T20:50:44.499Z,6.88
2023-05-24T20:53:11.681Z,7.15
2023-05-24T20:55:40.868Z,7.07
2023-05-24T20:58:09.708Z,6.63
2023-05-24T21:00:38.261Z,6.78
2023-05-24T21:03:11.339Z,7.15
2023-05-24T21:05:40.132Z,7.00
2023-05-24T21:08:11.616Z,6.72
2023-05-24T21:10:40.792Z,6.93
2023-05-24T21:13:09.644Z,7.13
2023-05-24T21:15:36.371Z,6.20
2023-05-24T21:18:03.844Z,6.72
2023-05-24T21:20:30.602Z,6.57
2023-05-24T21:22:57.305Z,6.75
2023-05-24T21:25:24.547Z,6.65
2023-05-24T21:27:53.622Z,7.22
2023-05-24T21:30:20.483Z,6.78
2023-05-24T21:32:49.320Z,6.90
2023-05-24T21:35:21.556Z,6.60
2023-05-24T21:37:48.562Z,6.75
2023-05-24T21:40:15.739Z,6.47
2023-05-24T21:42:43.353Z,6.55
2023-05-24T21:45:12.751Z,6.85
2023-05-24T21:47:39.521Z,6.65
2023-05-24T21:50:06.849Z,7.40
2023-05-24T21:52:39.546Z,6.80
2023-05-24T21:55:06.575Z,7.13
2023-05-24T21:57:35.469Z,6.57
2023-05-24T22:00:05.127Z,7.32
2023-05-24T22:02:32.079Z,7.05
2023-05-24T22:05:01.707Z,7.10
2023-05-24T22:07:30.744Z,7.20
2023-05-24T22:09:59.788Z,7.63
2023-05-24T22:12:26.456Z,7.57
2023-05-24T22:14:57.861Z,7.30
2023-05-24T22:17:26.819Z,7.20
2023-05-24T22:19:55.732Z,6.97
2023-05-24T22:22:22.797Z,7.75
2023-05-24T22:24:51.789Z,7.32
2023-05-24T22:27:18.548Z,7.05
2023-05-24T22:29:48.425Z,7.13
2023-05-24T22:32:20.509Z,6.90
2023-05-24T22:34:47.303Z,7.30
2023-05-24T22:37:16.722Z,7.57
2023-05-24T22:39:46.016Z,7.25
2023-05-24T22:42:15.409Z,7.30
2023-05-24T22:44:46.579Z,7.38
2023-05-24T22:47:14.127Z,6.72
2023-05-24T22:49:43.130Z,6.80
2023-05-24T22:52:11.948Z,7.30
2023-05-24T22:54:40.833Z,6.82
2023-05-24T22:57:07.430Z,6.80
2023-05-24T22:59:37.416Z,7.55
2023-05-24T23:02:07.341Z,7.53
2023-05-24T23:04:34.097Z,7.30
2023-05-24T23:07:03.154Z,6.97
2023-05-24T23:09:35.396Z,7.15
2023-05-24T23:12:07.579Z,7.50
2023-05-24T23:14:38.632Z,6.50
2023-05-24T23:17:10.484Z,6.70
2023-05-24T23:19:43.332Z,7.68
2023-05-24T23:22:11.989Z,6.93
2023-05-24T23:24:44.546Z,6.78
2023-05-24T23:27:11.417Z,6.93
2023-05-24T23:29:59.450Z,6.95
2023-05-24T23:32:28.466Z,7.20
2023-05-24T23:34:55.341Z,7.10
2023-05-24T23:37:24.448Z,6.90
2023-05-24T23:39:52.037Z,6.68
2023-05-24T23:42:18.798Z,6.72
2023-05-24T23:44:50.180Z,7.03
2023-05-24T23:47:19.020Z,6.95
2023-05-24T23:49:47.789Z,7.13
2023-05-24T23:52:16.921Z,6.53
2023-05-24T23:54:45.791Z,6.90
2023-05-24T23:57:14.896Z,6.68
2023-05-24T23:59:43.786Z,6.50
